This is the latest recevied weather packets stored in our database for station/object KE5VT. If no packets are shown the sender has not sent any weather packets the latest 1 day(s).
| Time | Temp. | Humidity | Pressure | Rain* | Wind** | Luminosity | Snow |
|---|---|---|---|---|---|---|---|
| 1778092964 | 23.89° C | 66% | 1009.7 hPa | 0 mm | - | 289 W/m² | - |
| 1778092661 | 23.89° C | 65% | 1009.7 hPa | 0 mm | - | 432 W/m² | - |
| 1778092059 | 23.89° C | 67% | 1009.7 hPa | 0 mm | - | 262 W/m² | - |
| 1778091756 | 23.33° C | 68% | 1010 hPa | 0 mm | - | 289 W/m² | - |
| 1778090549 | 22.22° C | 71% | 1010.8 hPa | 0 mm | - | 172 W/m² | - |
| 1778087822 | 22.22° C | 72% | 1011.3 hPa | 0 mm | - | 174 W/m² | - |
| 1778087217 | 21.67° C | 75% | 1011.2 hPa | 0 mm | - | 127 W/m² | - |
| 1778086914 | 21.67° C | 75% | 1011.5 hPa | 0 mm | - | 142 W/m² | - |
| 1778086612 | 21.67° C | 76% | 1011.2 hPa | 0 mm | - | 159 W/m² | - |
| 1778086308 | 21.67° C | 77% | 1011.5 hPa | 0 mm | - | 174 W/m² | - |
| 1778085703 | 21.67° C | 74% | 1011.4 hPa | 0 mm | - | 84 W/m² | - |
| 1778085399 | 22.22° C | 73% | 1011.5 hPa | 0 mm | - | 72 W/m² | - |
| 1778085094 | 22.22° C | 72% | 1011.6 hPa | 0 mm | - | 255 W/m² | - |
| 1778084488 | 22.22° C | 72% | 1011.4 hPa | 0 mm | - | 95 W/m² | - |
| 1778083882 | 22.22° C | 72% | 1011.2 hPa | 0 mm | - | 447 W/m² | - |
| 1778083276 | 22.22° C | 74% | 1011.2 hPa | 0 mm | - | 196 W/m² | - |
| 1778079103 | 20.56° C | 77% | 1010.7 hPa | 0 mm | - | 158 W/m² | - |
| 1778077893 | 20° C | 77% | 1010.9 hPa | 0 mm | - | 157 W/m² | - |
| 1778077289 | 20° C | 77% | 1010.8 hPa | 0 mm | - | 144 W/m² | - |
| 1778076986 | 20° C | 77% | 1011 hPa | 0 mm | - | 147 W/m² | - |
| 1778076382 | 19.44° C | 78% | 1011.1 hPa | 0 mm | - | 121 W/m² | - |
| 1778073956 | 18.33° C | 82% | 1011 hPa | 0 mm | - | 102 W/m² | - |
| 1778073653 | 18.33° C | 81% | 1010.9 hPa | 0 mm | - | 115 W/m² | - |
| 1778073350 | 18.33° C | 81% | 1010.8 hPa | 0 mm | - | 99 W/m² | - |
| 1778073046 | 17.78° C | 81% | 1010.8 hPa | 0 mm | - | 92 W/m² | - |
* Rain latest hour (hover to see other rain measurements)
** Current wind speed in m/s (hover to see current wind gust speed)